Time;durP1;ratioP1;P1;durP2;ratioP2;P2;SDS_P1;SDS_P2;PMS_P1;PMS_P2;Temp;Humidity;BMP_temperature;BMP_pressure;BME280_temperature;BME280_humidity;BME280_pressure;Samples;Min_cycle;Max_cycle;Signal;HPM_P1;HPM_P2
2023/05/11 00:01:14;;;;;;;0.60;0.52;;;;;;;12.71;62.51;97027.34;4885323;28;20403;-77
2023/05/11 00:03:40;;;;;;;1.58;0.77;;;;;;;12.66;63.21;97016.88;4857096;28;20186;-77
2023/05/11 00:06:05;;;;;;;0.80;0.70;;;;;;;12.57;62.88;97019.22;4882857;28;20163;-77
2023/05/11 00:08:31;;;;;;;1.00;0.70;;;;;;;12.58;63.47;97020.00;4854604;28;20612;-79
2023/05/11 00:10:59;;;;;;;0.60;0.60;;;;;;;12.52;63.82;97006.16;4871439;28;20302;-76
2023/05/11 00:13:25;;;;;;;1.58;0.90;;;;;;;12.50;63.96;97009.03;4874176;28;20242;-79
2023/05/11 00:15:51;;;;;;;0.80;0.70;;;;;;;12.48;64.27;97011.13;4872734;28;20612;-79
2023/05/11 00:18:16;;;;;;;1.15;0.70;;;;;;;12.41;64.32;97010.63;4869891;28;20268;-77
2023/05/11 00:20:42;;;;;;;0.65;0.57;;;;;;;12.40;64.56;97008.25;4861039;28;20639;-77
2023/05/11 00:23:07;;;;;;;1.17;0.80;;;;;;;12.36;64.88;97006.16;4875412;28;20295;-77
2023/05/11 00:25:32;;;;;;;1.15;0.73;;;;;;;12.33;64.78;97006.66;4898788;28;20418;-77
2023/05/11 00:27:58;;;;;;;1.70;0.82;;;;;;;12.38;64.59;97002.50;4877512;28;20334;-78
2023/05/11 00:30:23;;;;;;;1.25;0.98;;;;;;;12.39;64.45;97002.25;4853509;28;20172;-77
2023/05/11 00:32:50;;;;;;;1.48;0.70;;;;;;;12.39;64.53;97001.47;4882530;28;20365;-79
2023/05/11 00:35:15;;;;;;;1.42;0.80;;;;;;;12.28;64.75;96993.63;4882285;28;20427;-77
2023/05/11 00:37:41;;;;;;;1.65;0.80;;;;;;;12.26;64.97;96994.94;4871489;28;20446;-79
2023/05/11 00:40:07;;;;;;;1.13;0.90;;;;;;;12.28;65.08;96993.63;4881097;28;20412;-79
2023/05/11 00:42:35;;;;;;;1.48;1.13;;;;;;;12.28;65.17;96985.00;4873652;28;20408;-77
2023/05/11 00:45:00;;;;;;;1.70;1.15;;;;;;;12.31;65.41;96984.50;4880339;28;20042;-76
2023/05/11 00:47:26;;;;;;;2.20;1.13;;;;;;;12.38;65.51;96994.69;4885862;28;20252;-78
2023/05/11 00:49:52;;;;;;;1.83;1.10;;;;;;;12.40;65.47;96985.53;4869711;28;20540;-77
2023/05/11 00:52:18;;;;;;;1.50;1.40;;;;;;;12.36;65.48;96985.28;4874824;28;20424;-77
2023/05/11 00:54:45;;;;;;;1.02;0.75;;;;;;;12.40;65.90;96992.59;4873386;28;20105;-77
2023/05/11 00:57:10;;;;;;;1.33;1.20;;;;;;;12.40;65.09;96992.59;4874483;28;20104;-79
2023/05/11 00:59:36;;;;;;;2.72;1.10;;;;;;;12.35;65.12;96986.34;4874784;28;20217;-77
2023/05/11 01:02:02;;;;;;;2.45;1.10;;;;;;;12.34;65.25;96986.59;4875478;28;20583;-77
2023/05/11 01:04:28;;;;;;;1.30;1.00;;;;;;;12.36;65.41;96987.88;4893984;23;20213;-83
2023/05/11 01:07:17;;;;;;;1.98;1.00;;;;;;;12.39;65.59;96981.38;4918087;28;20303;-82
2023/05/11 01:09:54;;;;;;;1.45;1.23;;;;;;;12.42;65.39;97000.94;4904425;28;20189;-82
2023/05/11 01:12:30;;;;;;;3.20;1.85;;;;;;;12.43;65.51;96999.91;4900398;28;20261;-83
2023/05/11 01:15:02;;;;;;;2.63;2.05;;;;;;;12.41;65.63;96994.94;4933795;28;20103;-82
2023/05/11 01:17:35;;;;;;;3.40;1.25;;;;;;;12.46;65.38;96996.78;4909713;28;20210;-83
2023/05/11 01:20:04;;;;;;;2.05;1.15;;;;;;;12.46;65.37;97002.00;4901475;28;20182;-83
2023/05/11 01:22:42;;;;;;;2.13;1.60;;;;;;;12.45;65.81;96995.97;4911618;28;20293;-82
2023/05/11 01:25:34;;;;;;;2.95;1.35;;;;;;;12.38;65.63;96984.25;4899231;28;20101;-83
2023/05/11 01:28:12;;;;;;;1.35;1.13;;;;;;;12.49;66.00;97004.06;4906938;28;20273;-83
2023/05/11 01:30:50;;;;;;;2.95;1.73;;;;;;;12.53;65.76;97005.91;4916599;28;20189;-82
2023/05/11 01:33:18;;;;;;;2.33;1.60;;;;;;;12.46;65.74;97002.78;4913195;28;20200;-83
2023/05/11 01:35:51;;;;;;;3.58;1.85;;;;;;;12.42;65.93;96998.34;4921757;28;20152;-82
2023/05/11 01:38:20;;;;;;;2.42;1.73;;;;;;;12.52;65.87;97006.94;4904106;28;20482;-82
2023/05/11 01:40:50;;;;;;;2.80;1.42;;;;;;;12.62;65.82;97008.78;4907741;28;20153;-82
2023/05/11 01:43:20;;;;;;;1.92;1.67;;;;;;;12.53;65.78;96992.09;4912234;28;20207;-83
2023/05/11 01:45:46;;;;;;;2.92;2.10;;;;;;;12.62;65.88;97008.00;4898267;28;20194;-82
2023/05/11 01:48:23;;;;;;;2.85;2.00;;;;;;;12.74;66.24;97003.31;4920668;28;20186;-83
2023/05/11 01:50:49;;;;;;;3.20;2.08;;;;;;;12.72;66.60;97000.19;4918817;28;20249;-83
2023/05/11 01:53:16;;;;;;;2.28;2.03;;;;;;;12.81;66.29;97000.44;4921318;28;20412;-83
2023/05/11 01:55:42;;;;;;;2.45;1.88;;;;;;;12.89;66.30;97000.69;4904265;28;20179;-82
2023/05/11 01:58:09;;;;;;;2.65;2.10;;;;;;;12.99;66.10;96989.44;4921620;28;20186;-83
2023/05/11 02:00:35;;;;;;;4.80;2.40;;;;;;;12.95;66.45;96993.59;4919014;28;20263;-83
2023/05/11 02:03:02;;;;;;;4.95;2.97;;;;;;;13.02;65.64;96990.72;4897873;28;20221;-82
2023/05/11 02:05:29;;;;;;;3.53;2.42;;;;;;;13.02;65.87;96993.34;4904551;28;20278;-84
2023/05/11 02:07:54;;;;;;;4.13;2.67;;;;;;;13.04;65.75;96999.09;4903031;28;20685;-82
2023/05/11 02:10:22;;;;;;;4.40;2.20;;;;;;;13.16;65.34;96998.81;4922916;28;20179;-83
2023/05/11 02:12:51;;;;;;;5.93;3.42;;;;;;;13.20;65.42;97008.47;4899517;28;20164;-82
2023/05/11 02:15:19;;;;;;;5.20;3.58;;;;;;;13.14;65.79;96999.06;4914069;28;20219;-82
2023/05/11 02:17:44;;;;;;;7.43;3.85;;;;;;;13.05;65.38;96990.19;4889950;28;20726;-82
2023/05/11 02:20:10;;;;;;;4.65;3.42;;;;;;;13.18;65.64;96989.66;4897643;28;20246;-81
2023/05/11 02:22:36;;;;;;;7.00;3.90;;;;;;;13.23;65.59;96994.88;4889967;28;20264;-83
2023/05/11 02:25:03;;;;;;;7.10;4.45;;;;;;;13.29;66.24;96999.03;4939796;28;20684;-82
2023/05/11 02:27:28;;;;;;;7.03;4.35;;;;;;;13.22;65.78;96988.06;4907288;28;20222;-82
2023/05/11 02:29:54;;;;;;;7.28;4.53;;;;;;;13.32;66.08;96997.75;4908084;28;20553;-83
2023/05/11 02:32:21;;;;;;;9.18;5.57;;;;;;;13.43;65.40;97003.72;4928618;28;20186;-83
2023/05/11 02:35:15;;;;;;;10.55;6.03;;;;;;;13.45;65.86;97004.25;4885645;28;20286;-82
2023/05/11 02:37:42;;;;;;;10.77;6.35;;;;;;;13.30;65.90;97000.59;4897299;28;20288;-82
2023/05/11 02:40:15;;;;;;;12.65;7.28;;;;;;;13.35;65.78;96992.00;4907735;28;20771;-82
2023/05/11 02:42:42;;;;;;;11.00;6.93;;;;;;;13.24;66.56;97003.50;4923255;28;20201;-82
2023/05/11 02:45:08;;;;;;;11.43;7.15;;;;;;;13.33;66.53;97009.00;4911859;28;20258;-82
2023/05/11 02:47:53;;;;;;;12.55;7.82;;;;;;;13.41;65.97;97003.22;4919713;28;20331;-82
2023/05/11 02:50:19;;;;;;;;;;;;;;;13.49;65.87;97000.06;4903713;28;20301;-82
2023/05/11 02:52:46;;;;;;;11.85;7.78;;;;;;;13.29;66.26;97001.63;4902814;28;20417;-82
2023/05/11 02:55:14;;;;;;;11.95;7.05;;;;;;;13.38;65.92;96990.66;4915547;28;20268;-83
2023/05/11 02:57:39;;;;;;;12.05;7.70;;;;;;;13.37;65.74;96994.34;4919315;28;20706;-82
2023/05/11 03:00:05;;;;;;;11.63;7.88;;;;;;;13.40;66.36;97001.63;4903716;28;20274;-82
2023/05/11 03:02:30;;;;;;;14.80;8.70;;;;;;;13.33;66.12;96993.31;4902954;28;20631;-83
2023/05/11 03:04:56;;;;;;;13.80;8.82;;;;;;;13.35;66.45;96999.03;4906629;28;20210;-82
2023/05/11 03:07:21;;;;;;;12.38;8.10;;;;;;;13.39;65.68;96998.25;4902620;28;20649;-82
2023/05/11 03:09:47;;;;;;;13.27;9.63;;;;;;;13.35;65.82;97006.88;4919221;28;20186;-82
2023/05/11 03:12:13;;;;;;;14.90;9.00;;;;;;;13.38;65.40;96995.91;4902264;28;20826;-81
2023/05/11 03:14:39;;;;;;;12.30;8.35;;;;;;;13.45;65.44;97005.03;4903908;28;20280;-81
2023/05/11 03:17:05;;;;;;;14.30;8.82;;;;;;;13.41;65.32;97003.22;4904305;28;20158;-81
2023/05/11 03:19:31;;;;;;;13.43;7.93;;;;;;;13.41;65.25;97006.59;4888040;28;20310;-82
2023/05/11 03:21:57;;;;;;;12.77;9.07;;;;;;;13.43;65.19;97003.72;4896555;28;20640;-81
2023/05/11 03:24:23;;;;;;;14.30;8.80;;;;;;;13.33;65.36;96999.31;4898006;28;20151;-82
2023/05/11 03:26:49;;;;;;;12.52;8.57;;;;;;;13.34;65.95;97006.13;4919788;28;20146;-82
2023/05/11 03:29:15;;;;;;;11.82;7.88;;;;;;;13.43;65.46;96999.28;4904774;28;20284;-82
2023/05/11 03:31:41;;;;;;;13.20;8.95;;;;;;;13.48;65.29;97001.88;4911496;28;20273;-82
2023/05/11 03:34:06;;;;;;;13.95;9.00;;;;;;;13.45;64.63;96994.59;4922844;28;20264;-82
2023/05/11 03:36:32;;;;;;;13.43;9.70;;;;;;;13.39;64.11;96979.16;4919749;28;20237;-82
2023/05/11 03:38:58;;;;;;;15.10;9.43;;;;;;;13.35;64.75;96992.00;4891688;28;20337;-82
2023/05/11 03:41:25;;;;;;;13.15;8.65;;;;;;;13.43;64.70;96993.28;4919304;28;20624;-82
2023/05/11 03:43:51;;;;;;;15.95;9.35;;;;;;;13.23;64.80;96973.97;4906728;28;20676;-82
2023/05/11 03:46:19;;;;;;;15.30;10.05;;;;;;;13.37;65.04;96983.91;4925683;28;20275;-81
2023/05/11 03:48:45;;;;;;;13.85;9.13;;;;;;;13.43;64.98;96993.28;4910096;28;20254;-82
2023/05/11 03:51:10;;;;;;;13.50;9.07;;;;;;;13.34;64.70;96989.66;4903050;28;20285;-82
2023/05/11 03:53:37;;;;;;;12.70;9.07;;;;;;;13.36;65.34;96979.69;4905809;28;20193;-82
2023/05/11 03:56:03;;;;;;;14.02;8.95;;;;;;;13.39;65.23;96989.63;4927249;28;20275;-81
2023/05/11 03:58:29;;;;;;;14.85;9.38;;;;;;;13.26;65.97;96989.13;4905717;28;20295;-82
2023/05/11 04:00:55;;;;;;;15.38;9.80;;;;;;;13.30;66.46;96992.75;4924224;28;20206;-82
2023/05/11 04:03:20;;;;;;;15.90;10.25;;;;;;;13.29;65.81;96990.41;4885067;28;20198;-83
2023/05/11 04:05:45;;;;;;;13.93;9.95;;;;;;;13.21;65.54;96975.25;4893532;28;20609;-82
2023/05/11 04:08:11;;;;;;;14.88;10.00;;;;;;;13.34;65.15;96992.25;4888778;28;20623;-82
2023/05/11 04:10:37;;;;;;;14.02;9.35;;;;;;;13.26;65.71;96989.13;4891616;28;20202;-83
2023/05/11 04:13:02;;;;;;;14.48;9.23;;;;;;;13.35;65.11;96993.81;4909285;28;20191;-82
2023/05/11 04:15:28;;;;;;;15.25;9.68;;;;;;;13.23;65.81;96981.81;4902963;28;20615;-81
2023/05/11 04:17:54;;;;;;;14.18;9.07;;;;;;;13.33;65.79;96988.84;4921893;28;20232;-82
2023/05/11 04:20:20;;;;;;;14.10;9.10;;;;;;;13.29;65.71;96978.09;4907309;28;20289;-81
2023/05/11 04:22:45;;;;;;;15.00;9.68;;;;;;;13.38;65.01;96985.44;4903845;28;20226;-82
2023/05/11 04:25:12;;;;;;;14.70;9.88;;;;;;;13.28;65.55;96976.56;4915816;28;20259;-82
2023/05/11 04:27:38;;;;;;;15.52;10.52;;;;;;;13.36;65.42;96993.56;4921185;28;20138;-82
2023/05/11 04:30:04;;;;;;;16.05;10.30;;;;;;;13.33;65.79;96988.06;4909937;28;20190;-82
2023/05/11 04:32:30;;;;;;;13.77;9.65;;;;;;;13.37;65.94;96992.50;4921627;28;20259;-82
2023/05/11 04:34:55;;;;;;;15.43;10.10;;;;;;;13.39;65.10;96990.41;4903172;28;20284;-82
2023/05/11 04:37:21;;;;;;;16.90;11.40;;;;;;;13.33;65.87;96985.47;4917584;28;20080;-83
2023/05/11 04:39:46;;;;;;;14.85;9.55;;;;;;;13.35;65.32;96986.78;4881240;28;20379;-82
2023/05/11 04:42:12;;;;;;;16.25;10.60;;;;;;;13.36;66.12;97006.63;4901348;28;20276;-82
2023/05/11 04:44:38;;;;;;;14.77;9.88;;;;;;;13.45;65.48;97006.84;4904770;28;20045;-81
2023/05/11 04:47:03;;;;;;;15.38;9.90;;;;;;;13.38;66.35;97003.75;4893086;28;20279;-82
2023/05/11 04:49:29;;;;;;;14.52;9.63;;;;;;;13.41;65.74;97001.38;4899215;28;20232;-82
2023/05/11 04:51:54;;;;;;;12.50;8.57;;;;;;;13.42;65.78;96999.56;4899565;28;20210;-82
2023/05/11 04:54:20;;;;;;;13.45;9.23;;;;;;;13.46;65.54;97003.22;4885724;28;20280;-82
2023/05/11 04:56:45;;;;;;;12.77;9.32;;;;;;;13.48;65.59;97011.56;4886745;28;20202;-81
2023/05/11 04:59:10;;;;;;;12.45;8.25;;;;;;;13.44;65.20;97006.09;4902740;28;20191;-81
2023/05/11 05:01:36;;;;;;;13.98;9.48;;;;;;;13.56;65.21;97018.88;4890576;28;20654;-82
2023/05/11 05:04:01;;;;;;;13.63;8.57;;;;;;;13.58;64.86;97022.00;4903443;28;20217;-82
2023/05/11 05:06:27;;;;;;;13.20;8.40;;;;;;;13.49;65.24;97008.69;4921408;28;20251;-81
2023/05/11 05:08:52;;;;;;;11.88;7.90;;;;;;;13.49;65.14;97018.38;4920459;28;20438;-81
2023/05/11 05:11:17;;;;;;;10.38;7.65;;;;;;;13.57;64.71;97027.50;4906616;28;20136;-82
2023/05/11 05:13:43;;;;;;;11.60;7.75;;;;;;;13.49;64.87;97024.38;4890532;28;20268;-82
2023/05/11 05:16:08;;;;;;;10.90;7.03;;;;;;;13.39;65.44;97011.31;4921563;28;20655;-81
2023/05/11 05:18:34;;;;;;;11.23;7.60;;;;;;;13.42;64.96;97017.88;4904054;28;20099;-81
2023/05/11 05:20:59;;;;;;;11.05;7.45;;;;;;;13.48;65.31;97022.03;4890441;28;20168;-81
2023/05/11 05:23:25;;;;;;;10.15;6.93;;;;;;;13.51;64.73;97026.72;4906550;28;20546;-81
2023/05/11 05:25:50;;;;;;;10.55;7.45;;;;;;;13.52;64.68;97035.34;4905846;28;20170;-81
2023/05/11 05:28:16;;;;;;;11.50;7.47;;;;;;;13.59;64.92;97038.47;4923031;28;20665;-82
2023/05/11 05:30:41;;;;;;;8.82;6.72;;;;;;;13.55;65.19;97032.22;4915998;28;20098;-80
2023/05/11 05:33:07;;;;;;;8.35;6.18;;;;;;;13.59;64.71;97015.72;4928937;28;20281;-81
2023/05/11 05:35:32;;;;;;;10.52;6.70;;;;;;;13.65;64.16;97026.94;4927324;28;20197;-81
2023/05/11 05:37:57;;;;;;;10.20;6.40;;;;;;;13.62;64.11;97024.84;4892207;28;20183;-81
2023/05/11 05:40:23;;;;;;;9.48;6.03;;;;;;;13.66;64.54;97031.13;4923902;28;20150;-82
2023/05/11 05:42:48;;;;;;;8.85;6.60;;;;;;;13.63;64.09;97019.34;4902082;28;20280;-82
2023/05/11 05:45:14;;;;;;;7.63;5.85;;;;;;;13.61;63.57;97016.22;4907496;28;20186;-81
2023/05/11 05:47:39;;;;;;;8.65;6.72;;;;;;;13.70;63.83;97028.75;4894752;28;20206;-81
2023/05/11 05:50:06;;;;;;;8.10;5.88;;;;;;;13.72;64.38;97024.03;4895838;28;20678;-81
2023/05/11 05:52:32;;;;;;;7.78;5.63;;;;;;;13.82;63.90;97030.00;4908351;28;20202;-81
2023/05/11 05:54:57;;;;;;;8.40;5.53;;;;;;;13.79;63.80;97035.78;4912809;28;20167;-82
2023/05/11 05:57:23;;;;;;;7.38;5.88;;;;;;;13.82;64.69;97027.38;4926279;28;20256;-81
2023/05/11 05:59:48;;;;;;;8.88;5.82;;;;;;;13.88;63.74;97030.78;4895747;28;20281;-81
2023/05/11 06:02:14;;;;;;;8.85;6.72;;;;;;;13.95;64.14;97031.28;4935504;28;20197;-81
2023/05/11 06:04:40;;;;;;;8.32;6.20;;;;;;;13.92;63.73;97029.19;4923962;28;20310;-81
2023/05/11 06:07:06;;;;;;;9.63;6.93;;;;;;;13.97;64.36;97036.25;4914994;28;20541;-82
2023/05/11 06:09:31;;;;;;;8.85;5.95;;;;;;;13.95;63.94;97036.50;4889540;28;20049;-82
2023/05/11 06:11:56;;;;;;;9.10;6.78;;;;;;;14.11;62.36;97045.06;4903360;28;20671;-81
2023/05/11 06:14:22;;;;;;;9.48;6.05;;;;;;;14.01;63.02;97039.88;4888577;28;20218;-81
2023/05/11 06:16:48;;;;;;;8.95;5.95;;;;;;;14.09;63.35;97041.16;4933847;28;20204;-81
2023/05/11 06:19:14;;;;;;;9.13;6.00;;;;;;;14.14;63.58;97051.59;4918006;28;20313;-82
2023/05/11 06:21:41;;;;;;;8.02;5.78;;;;;;;14.12;62.79;97025.69;4921909;28;20187;-81
2023/05/11 06:24:07;;;;;;;10.45;6.43;;;;;;;14.45;62.43;97051.44;4922863;28;20266;-81
2023/05/11 06:26:32;;;;;;;8.45;6.03;;;;;;;14.57;62.30;97054.50;4926512;28;20237;-82
2023/05/11 06:28:58;;;;;;;9.15;6.28;;;;;;;14.66;61.67;97049.47;4929397;28;20193;-82
2023/05/11 06:31:23;;;;;;;7.88;5.78;;;;;;;14.45;62.21;97039.09;4965162;28;20217;-82
2023/05/11 06:33:49;;;;;;;7.85;5.68;;;;;;;14.45;62.08;97041.72;4896880;28;20346;-81
2023/05/11 06:36:14;;;;;;;10.60;7.78;;;;;;;14.34;63.29;97041.03;4909030;28;20198;-82
2023/05/11 06:38:40;;;;;;;9.55;6.38;;;;;;;14.48;63.31;97043.81;4910838;28;20238;-81
2023/05/11 06:41:06;;;;;;;10.30;6.53;;;;;;;14.55;61.90;97048.75;4913656;28;20206;-81
2023/05/11 06:43:32;;;;;;;9.35;6.07;;;;;;;14.42;62.70;97050.91;4926872;28;20087;-82
2023/05/11 06:45:57;;;;;;;9.07;5.85;;;;;;;14.54;62.58;97047.94;4908101;28;20272;-82
2023/05/11 06:48:24;;;;;;;7.95;5.95;;;;;;;14.39;61.61;97024.47;4910838;28;20194;-81
2023/05/11 06:50:50;;;;;;;8.38;6.10;;;;;;;14.35;63.02;97031.31;4916766;28;20263;-82
2023/05/11 06:53:16;;;;;;;7.80;5.20;;;;;;;14.51;63.24;97039.84;4911634;28;20632;-81
2023/05/11 06:55:42;;;;;;;8.25;6.07;;;;;;;14.56;62.90;97034.56;4891835;28;20211;-81
2023/05/11 06:58:07;;;;;;;8.57;6.53;;;;;;;14.56;63.55;97045.06;4901528;28;20176;-82
2023/05/11 07:00:33;;;;;;;6.80;5.03;;;;;;;14.64;63.00;97036.66;4882313;28;20353;-82
2023/05/11 07:02:58;;;;;;;8.00;5.45;;;;;;;14.73;62.74;97032.38;4906789;28;20739;-82
2023/05/11 07:05:23;;;;;;;9.10;6.28;;;;;;;14.99;61.50;97037.41;4894410;28;20298;-81
2023/05/11 07:07:49;;;;;;;9.90;6.25;;;;;;;15.17;61.31;97039.34;4925733;28;20042;-83
2023/05/11 07:10:14;;;;;;;7.97;5.93;;;;;;;15.12;60.96;97046.47;4886160;28;20520;-82
2023/05/11 07:12:40;;;;;;;7.90;5.60;;;;;;;15.11;60.73;97035.22;4911648;28;20205;-82
2023/05/11 07:15:06;;;;;;;8.65;5.85;;;;;;;15.17;60.21;97044.56;4892090;28;20159;-81
2023/05/11 07:17:31;;;;;;;8.15;5.65;;;;;;;14.94;61.73;97032.19;4912411;28;20268;-81
2023/05/11 07:19:57;;;;;;;7.05;5.30;;;;;;;14.98;61.27;97038.47;4930280;28;20280;-81
2023/05/11 07:22:22;;;;;;;9.30;6.18;;;;;;;15.11;60.88;97029.97;4889436;28;20099;-82
2023/05/11 07:24:47;;;;;;;4.68;3.80;;;;;;;15.13;58.92;97046.19;4885380;28;20720;-82
2023/05/11 07:27:13;;;;;;;5.63;4.10;;;;;;;15.19;60.24;97038.28;4927900;28;20290;-82
2023/05/11 07:29:39;;;;;;;5.78;4.18;;;;;;;15.41;59.52;97043.06;4887442;28;20203;-83
2023/05/11 07:32:06;;;;;;;3.78;2.75;;;;;;;15.51;58.03;97042.94;4906946;28;20267;-81
2023/05/11 07:34:32;;;;;;;4.95;3.20;;;;;;;15.47;57.04;97045.34;4933645;28;20273;-82
2023/05/11 07:36:57;;;;;;;5.85;3.53;;;;;;;15.34;59.01;97038.13;4876907;28;20186;-82
2023/05/11 07:39:22;;;;;;;3.92;2.88;;;;;;;15.44;57.90;97040.66;4934108;28;20308;-81
2023/05/11 07:41:48;;;;;;;3.70;2.60;;;;;;;15.55;57.62;97042.09;4918601;28;20296;-81
2023/05/11 07:44:13;;;;;;;3.78;2.60;;;;;;;15.68;56.49;97047.75;4877866;28;20231;-81
2023/05/11 07:46:38;;;;;;;3.88;2.60;;;;;;;15.72;56.39;97051.38;4891034;28;20230;-81
2023/05/11 07:49:04;;;;;;;4.15;3.33;;;;;;;15.73;56.70;97047.69;4901282;28;20382;-82
2023/05/11 07:51:29;;;;;;;4.40;3.30;;;;;;;15.63;57.96;97045.97;4898293;28;20694;-82
2023/05/11 07:53:55;;;;;;;3.33;2.60;;;;;;;15.79;57.59;97043.19;4887343;28;20417;-82
2023/05/11 07:56:20;;;;;;;2.35;2.15;;;;;;;15.84;55.79;97017.66;4904336;28;20198;-82
2023/05/11 07:58:47;;;;;;;4.38;2.85;;;;;;;16.03;56.70;97043.91;4916818;28;20568;-81
2023/05/11 08:01:12;;;;;;;2.95;2.65;;;;;;;16.07;56.12;97023.94;4868476;28;20207;-82
2023/05/11 08:03:38;;;;;;;3.70;2.47;;;;;;;16.24;55.05;97039.16;4900153;28;20185;-81
2023/05/11 08:06:03;;;;;;;3.80;2.22;;;;;;;16.39;53.67;97032.94;4918240;28;20660;-82
2023/05/11 08:08:29;;;;;;;3.65;2.15;;;;;;;16.47;53.86;97031.50;4945666;28;20107;-82
2023/05/11 08:10:55;;;;;;;2.17;1.70;;;;;;;16.52;54.61;97034.06;4891273;28;20172;-82
2023/05/11 08:13:20;;;;;;;2.95;2.17;;;;;;;16.51;53.30;97021.97;4914049;28;20203;-82
2023/05/11 08:15:46;;;;;;;2.65;2.45;;;;;;;16.28;54.70;97003.41;4905008;28;20261;-82
2023/05/11 08:18:11;;;;;;;2.75;2.22;;;;;;;16.66;54.26;97028.84;4901910;28;20198;-82
2023/05/11 08:20:38;;;;;;;2.05;1.95;;;;;;;16.70;52.98;97027.22;4890070;28;20268;-82
2023/05/11 08:23:03;;;;;;;2.45;1.92;;;;;;;16.85;53.53;97031.47;4885765;28;20135;-81
2023/05/11 08:25:29;;;;;;;2.33;2.08;;;;;;;16.67;54.36;97025.16;4882000;28;20204;-83
2023/05/11 08:27:54;;;;;;;2.05;1.90;;;;;;;16.61;54.74;97021.06;4898049;28;20255;-82
2023/05/11 08:30:20;;;;;;;3.33;2.05;;;;;;;16.68;55.11;97029.34;4901673;28;20161;-82
2023/05/11 08:32:45;;;;;;;7.32;4.00;;;;;;;16.67;54.97;97015.44;4915639;28;20214;-82
2023/05/11 08:35:12;;;;;;;2.63;2.10;;;;;;;16.82;54.16;97024.91;4910822;28;20246;-82
2023/05/11 08:37:37;;;;;;;3.35;2.00;;;;;;;16.74;54.77;97028.22;4899223;28;20226;-82
2023/05/11 08:40:03;;;;;;;2.30;1.83;;;;;;;16.90;53.31;97028.00;4902027;28;20644;-82
2023/05/11 08:42:32;;;;;;;2.30;1.85;;;;;;;16.92;53.62;97037.13;4900659;28;20280;-81
2023/05/11 08:44:58;;;;;;;2.28;2.08;;;;;;;16.88;53.44;97030.09;4907243;28;20595;-82
2023/05/11 08:47:24;;;;;;;1.83;1.50;;;;;;;16.72;53.71;97032.19;4886830;28;20110;-81
2023/05/11 08:49:51;;;;;;;3.90;1.70;;;;;;;16.67;54.66;97038.28;4896958;28;20202;-82
2023/05/11 08:52:17;;;;;;;2.38;2.10;;;;;;;16.69;54.58;97038.00;4902219;28;20237;-81
2023/05/11 08:54:44;;;;;;;3.58;1.90;;;;;;;16.87;54.08;97045.13;4914422;28;20702;-81
2023/05/11 08:57:10;;;;;;;1.88;1.67;;;;;;;16.63;54.63;97029.44;4902587;28;20222;-82
2023/05/11 08:59:36;;;;;;;1.83;1.52;;;;;;;16.92;53.77;97037.13;4892216;28;20189;-82
2023/05/11 09:02:03;;;;;;;1.77;1.20;;;;;;;17.11;51.03;97031.03;4898378;28;20229;-82
2023/05/11 09:04:29;;;;;;;2.00;1.70;;;;;;;17.03;53.33;97028.03;4892173;28;20273;-82
2023/05/11 09:06:55;;;;;;;1.60;1.50;;;;;;;17.23;51.38;97039.25;4907687;28;20206;-82
2023/05/11 09:09:20;;;;;;;1.52;1.25;;;;;;;17.33;51.82;97046.19;4921276;28;20159;-82
2023/05/11 09:11:45;;;;;;;1.73;1.60;;;;;;;17.41;51.91;97022.59;4907099;28;20120;-81
2023/05/11 09:14:11;;;;;;;1.52;1.23;;;;;;;17.56;51.94;97050.50;4923623;28;20199;-81
2023/05/11 09:16:37;;;;;;;1.67;1.58;;;;;;;17.43;53.06;97043.38;4908575;28;20192;-81
2023/05/11 09:19:02;;;;;;;1.38;1.10;;;;;;;17.51;51.60;97044.53;4922208;28;20407;-82
2023/05/11 09:21:29;;;;;;;1.48;1.38;;;;;;;17.60;50.24;97048.06;4914740;28;20205;-81
2023/05/11 09:23:57;;;;;;;2.78;1.60;;;;;;;17.46;51.44;97042.00;4912443;28;20230;-81
2023/05/11 09:26:24;;;;;;;2.10;1.67;;;;;;;17.51;50.48;97040.06;4907273;28;20212;-81
2023/05/11 09:28:51;;;;;;;2.03;1.60;;;;;;;17.59;50.24;97049.13;4901082;28;20281;-81
2023/05/11 09:34:17;;;;;;;1.60;1.50;;;;;;;17.66;51.22;97038.97;5119054;22;20604;-81
2023/05/11 09:36:48;;;;;;;1.50;1.40;;;;;;;17.57;52.42;97041.50;4912957;28;20222;-83
2023/05/11 09:39:14;;;;;;;1.70;1.60;;;;;;;17.31;52.08;97043.06;4891982;28;20657;-81
2023/05/11 09:41:40;;;;;;;1.58;1.00;;;;;;;17.47;51.39;97040.94;5128271;23;20600;-82
2023/05/11 09:44:10;;;;;;;2.03;1.50;;;;;;;17.65;49.64;97047.97;4896560;28;20084;-81
2023/05/11 09:46:43;;;;;;;1.20;1.10;;;;;;;17.65;50.79;97037.44;4913273;28;20194;-81
2023/05/11 09:49:09;;;;;;;1.65;1.42;;;;;;;17.17;51.28;97037.75;4919731;28;20091;-80
2023/05/11 09:51:42;;;;;;;1.52;1.40;;;;;;;17.45;50.67;97038.59;4910280;28;20284;-80
2023/05/11 09:54:25;;;;;;;1.90;1.58;;;;;;;17.75;50.54;97042.50;4908880;28;20214;-80
2023/05/11 09:56:53;;;;;;;1.80;1.20;;;;;;;17.71;49.86;97028.34;4916469;28;20210;-81
2023/05/11 09:59:38;;;;;;;1.35;1.10;;;;;;;17.72;50.50;97034.41;4916095;28;20198;-81
2023/05/11 10:02:21;;;;;;;2.50;1.35;;;;;;;17.77;50.50;97042.19;4925023;28;20033;-80
2023/05/11 10:04:47;;;;;;;1.48;1.38;;;;;;;17.60;50.54;97040.94;4956028;28;20149;-81
2023/05/11 10:07:23;;;;;;;2.40;1.20;;;;;;;17.75;51.12;97028.53;4924310;28;20254;-81
2023/05/11 10:09:51;;;;;;;1.70;1.60;;;;;;;17.90;50.17;97032.75;4927552;28;20100;-80
2023/05/11 10:12:17;;;;;;;1.73;1.63;;;;;;;17.90;49.41;97038.78;4888277;28;20280;-81
2023/05/11 10:14:43;;;;;;;1.42;1.33;;;;;;;17.96;49.28;97036.84;4914013;28;20308;-81
2023/05/11 10:17:09;;;;;;;1.60;1.50;;;;;;;17.75;50.58;97036.44;4962110;28;20131;-81
2023/05/11 10:19:35;;;;;;;1.73;1.23;;;;;;;17.72;50.57;97037.81;5278222;23;20261;-82
2023/05/11 10:22:01;;;;;;;2.00;1.80;;;;;;;17.77;50.32;97035.06;4915733;28;20182;-82
2023/05/11 10:24:26;;;;;;;2.00;1.50;;;;;;;17.73;50.77;97026.19;4897491;28;20236;-81
2023/05/11 10:26:52;;;;;;;1.30;1.20;;;;;;;17.80;50.78;97023.16;4872579;28;20057;-81
2023/05/11 10:29:18;;;;;;;1.52;1.42;;;;;;;17.61;50.32;97036.44;4883633;28;20473;-81
2023/05/11 10:31:45;;;;;;;1.50;1.35;;;;;;;17.65;50.99;97024.25;4884697;28;20428;-81
2023/05/11 10:34:11;;;;;;;1.98;1.38;;;;;;;17.79;49.18;97018.97;4879054;28;20136;-83
2023/05/11 10:36:36;;;;;;;1.27;1.17;;;;;;;17.83;49.86;97009.41;4901935;28;20182;-81
2023/05/11 10:39:02;;;;;;;2.67;1.40;;;;;;;18.03;49.99;97021.41;4921661;28;20270;-81
2023/05/11 10:41:35;;;;;;;1.30;1.20;;;;;;;18.31;47.85;97026.59;4910929;28;20239;-81
2023/05/11 10:44:22;;;;;;;2.10;1.40;;;;;;;18.19;49.24;97024.47;4922103;28;20198;-81
2023/05/11 10:47:02;;;;;;;1.38;1.27;;;;;;;18.01;50.11;97023.56;4924529;28;20194;-81
2023/05/11 10:49:47;;;;;;;1.95;1.30;;;;;;;18.47;47.43;97019.91;4893751;28;20199;-81
2023/05/11 10:52:25;;;;;;;2.00;1.73;;;;;;;18.32;47.45;97020.25;4947169;28;20262;-81
2023/05/11 10:55:03;;;;;;;1.15;1.10;;;;;;;18.44;47.37;97025.78;4947968;28;20222;-81
2023/05/11 10:58:02;;;;;;;1.67;1.23;;;;;;;18.58;45.85;97024.94;4885761;28;20242;-82
2023/05/11 11:03:20;;;;;;;1.10;1.00;;;;;;;18.26;47.33;97026.72;5042470;22;20402;-81
2023/05/11 11:05:46;;;;;;;2.15;1.20;;;;;;;18.37;48.73;97020.16;4940904;28;20148;-80
2023/05/11 11:08:12;;;;;;;1.55;1.30;;;;;;;18.43;48.48;97018.16;4916264;28;20229;-80
2023/05/11 11:10:45;;;;;;;2.80;2.60;;;;;;;18.33;49.54;97025.25;4952026;28;20446;-81
2023/05/11 11:13:12;;;;;;;1.77;1.60;;;;;;;18.17;49.95;97008.19;4903822;28;20198;-81
2023/05/11 11:15:52;;;;;;;1.42;1.33;;;;;;;18.50;48.10;97024.56;4911686;28;20157;-81
2023/05/11 11:18:29;;;;;;;1.50;1.40;;;;;;;18.58;48.25;97019.69;4939912;28;20387;-80
2023/05/11 11:20:56;;;;;;;1.10;1.05;;;;;;;18.50;47.03;97018.53;4907796;28;20197;-82
2023/05/11 11:23:43;;;;;;;2.20;1.38;;;;;;;18.65;46.82;97020.03;4926917;28;20190;-80
2023/05/11 11:26:14;;;;;;;1.13;1.08;;;;;;;18.50;46.26;97000.06;4963212;28;20297;-81
2023/05/11 11:29:00;;;;;;;1.33;1.23;;;;;;;18.82;46.79;97011.44;4922312;28;20180;-81
2023/05/11 11:31:30;;;;;;;9.05;8.25;;;;;;;18.66;47.23;97008.38;4911575;28;20201;-81
2023/05/11 11:34:15;;;;;;;13.93;12.52;;;;;;;18.32;47.14;97012.34;4903538;28;20648;-81
2023/05/11 11:37:00;;;;;;;6.30;4.30;;;;;;;18.55;48.13;97015.78;4964014;28;20190;-81
2023/05/11 11:39:41;;;;;;;3.17;2.97;;;;;;;18.49;47.32;97004.56;4918449;28;20214;-81